Airport View

Enter ICAO identifier to see the current METAR for that AWOS.

KFNL for example

KFUL 291153Z 00000KT 10SM CLR 21/17 A3001 RMK AO2 SLP160 T02110172 10233 20211 55001

29 Jul 2014 12:42

Phone: 714-870-1372

Other Area AWOS: KSLI - KLGB - KEMT - KSNA

TAF KLGB 291128Z 2912/3012 VRB03KT P6SM SCT150 FM291900 20008KT P6SM SKC FM292300 30008KT P6SM SKC FM300500 VRB03KT P6SM SKC FM301000 VRB03KT P6SM BKN007